Terminal Aerodrome Forecast
Issued by NWS Green Bay, WI

Home | Current Version | Previous Version | Graphics & Text | Print | Product List | Glossary On
Versions: 1 2 3 4 5 6 7 8 9 10 11 12 13 14 15 16 17 18 19 20 21 22 23 24 25 26 27 28 29 30 31 32 33 34 35 36
000
FTUS43 KGRB 152300 RRA
TAFGRB
TAF
KGRB 152340Z 1600/1624 12006KT 1SM -RA BR OVC003
      TEMPO 1600/1601 1/2SM -RA FG VV002
     FM160700 06005KT 1SM -RA BR OVC004
     FM161200 01007KT 2SM -RASN BR OVC007
     FM161500 35012KT 2SM -SN BR OVC007
     FM162000 34015KT 6SM BR OVC018 PROB30 1620/1624 5SM -SN BR
      OVC012=

USA.gov is the U.S. government's official web portal to all federal, state and local government web resources and services.